createdAt,value
2023-01-29T00:00:34.818Z,1.06
2023-01-29T00:02:06.967Z,1.06
2023-01-29T00:03:38.971Z,1.05
2023-01-29T00:05:26.434Z,1.05
2023-01-29T00:06:59.578Z,1.04
2023-01-29T00:08:33.565Z,1.01
2023-01-29T00:10:05.865Z,1.01
2023-01-29T00:11:37.915Z,1.00
2023-01-29T00:13:09.898Z,1.01
2023-01-29T00:14:41.895Z,1.00
2023-01-29T00:16:13.925Z,1.00
2023-01-29T00:17:45.958Z,1.01
2023-01-29T00:19:18.033Z,1.00
2023-01-29T00:20:50.099Z,1.07
2023-01-29T00:22:22.088Z,1.05
2023-01-29T00:23:55.305Z,1.03
2023-01-29T00:25:27.284Z,1.02
2023-01-29T00:26:59.257Z,1.04
2023-01-29T00:28:31.260Z,1.02
2023-01-29T00:30:12.130Z,1.05
2023-01-29T00:31:44.654Z,1.04
2023-01-29T00:33:16.723Z,1.00
2023-01-29T00:34:48.666Z,1.00
2023-01-29T00:36:22.108Z,1.00
2023-01-29T00:37:55.203Z,0.99
2023-01-29T00:39:47.346Z,0.99
2023-01-29T00:41:38.157Z,0.97
2023-01-29T00:43:28.787Z,0.97
2023-01-29T00:45:00.900Z,0.96
2023-01-29T00:46:33.028Z,0.96
2023-01-29T00:48:05.174Z,0.91
2023-01-29T00:49:37.222Z,0.92
2023-01-29T00:51:09.193Z,0.91
2023-01-29T00:52:41.365Z,0.93
2023-01-29T00:54:14.455Z,0.99
2023-01-29T00:55:46.383Z,1.00
2023-01-29T00:57:19.394Z,0.94
2023-01-29T00:58:51.559Z,0.89
2023-01-29T01:00:24.924Z,0.92
2023-01-29T01:02:15.454Z,0.87
2023-01-29T01:03:47.404Z,0.85
2023-01-29T01:05:20.482Z,0.84
2023-01-29T01:06:52.546Z,0.86
2023-01-29T01:08:43.163Z,0.90
2023-01-29T01:10:22.699Z,0.88
2023-01-29T01:11:55.065Z,0.85
2023-01-29T01:13:27.128Z,0.85
2023-01-29T01:14:59.191Z,0.86
2023-01-29T01:16:31.207Z,0.83
2023-01-29T01:18:04.369Z,0.85
2023-01-29T01:19:36.392Z,0.85
2023-01-29T01:21:08.815Z,0.84
2023-01-29T01:22:41.205Z,0.82
2023-01-29T01:24:13.225Z,0.81
2023-01-29T01:25:45.508Z,0.80
2023-01-29T01:27:19.692Z,0.80
2023-01-29T01:28:52.023Z,0.80
2023-01-29T01:30:24.362Z,0.81
2023-01-29T01:31:56.512Z,0.81
2023-01-29T01:33:29.094Z,0.81
2023-01-29T01:35:01.063Z,0.86
2023-01-29T01:36:33.100Z,0.85
2023-01-29T01:38:05.089Z,0.86
2023-01-29T01:39:37.290Z,0.87
2023-01-29T01:41:09.191Z,0.86
2023-01-29T01:42:41.415Z,0.83
2023-01-29T01:44:32.099Z,0.84
2023-01-29T01:46:04.137Z,0.79
2023-01-29T01:47:36.055Z,0.80
2023-01-29T01:49:13.174Z,0.79
2023-01-29T01:50:48.082Z,0.80
2023-01-29T01:52:20.784Z,0.80
2023-01-29T01:54:10.267Z,0.76
2023-01-29T01:56:02.305Z,0.75
2023-01-29T01:57:34.271Z,0.74
2023-01-29T01:59:14.357Z,0.79
2023-01-29T02:00:46.349Z,0.73
2023-01-29T02:02:36.871Z,0.70
2023-01-29T02:04:39.066Z,0.67
2023-01-29T02:06:29.888Z,0.66
2023-01-29T02:08:20.541Z,0.66
2023-01-29T02:09:53.708Z,0.63
2023-01-29T02:11:27.037Z,0.64
2023-01-29T02:12:59.005Z,0.63
2023-01-29T02:14:32.069Z,0.63
2023-01-29T02:16:24.087Z,0.63
2023-01-29T02:17:56.152Z,0.62
2023-01-29T02:19:46.951Z,0.61
2023-01-29T02:21:29.305Z,0.59
2023-01-29T02:23:04.101Z,0.60
2023-01-29T02:24:51.234Z,0.59
2023-01-29T02:26:42.028Z,0.59
2023-01-29T02:28:16.525Z,0.57
2023-01-29T02:29:54.746Z,0.57
2023-01-29T02:31:37.600Z,0.60
2023-01-29T02:33:28.528Z,0.56
2023-01-29T02:35:25.333Z,0.60
2023-01-29T02:37:00.182Z,0.54
2023-01-29T02:38:40.953Z,0.53
2023-01-29T02:40:20.689Z,0.52
2023-01-29T02:41:52.621Z,0.53
2023-01-29T02:43:27.728Z,0.48
2023-01-29T02:44:59.704Z,0.46
2023-01-29T02:46:53.551Z,0.45
2023-01-29T02:48:27.824Z,0.43
2023-01-29T02:50:03.725Z,0.43
2023-01-29T02:51:47.270Z,0.43
2023-01-29T02:53:22.437Z,0.41
2023-01-29T02:55:03.273Z,0.48
2023-01-29T02:56:50.592Z,0.45
2023-01-29T02:58:25.560Z,0.47
2023-01-29T03:00:00.395Z,0.38
2023-01-29T03:01:44.992Z,0.39
2023-01-29T03:03:23.625Z,0.39
2023-01-29T03:05:00.021Z,0.47
2023-01-29T03:06:53.279Z,0.44
2023-01-29T03:08:45.479Z,0.41
2023-01-29T03:10:18.552Z,0.39
2023-01-29T03:11:53.039Z,0.41
2023-01-29T03:13:35.003Z,0.40
2023-01-29T03:15:14.136Z,0.43
2023-01-29T03:16:51.655Z,0.36
2023-01-29T03:18:27.774Z,0.34
2023-01-29T03:20:07.469Z,0.33
2023-01-29T03:21:59.956Z,0.31
2023-01-29T03:23:54.014Z,0.29
2023-01-29T03:25:46.214Z,0.29
2023-01-29T03:27:39.274Z,0.28
2023-01-29T03:29:30.887Z,0.32
2023-01-29T03:31:23.718Z,0.30
2023-01-29T03:33:06.595Z,0.31
2023-01-29T03:34:43.764Z,0.31
2023-01-29T03:36:27.395Z,0.31
2023-01-29T03:38:00.497Z,0.29
2023-01-29T03:39:32.471Z,0.30
2023-01-29T03:41:14.305Z,0.29
2023-01-29T03:42:59.730Z,0.28
2023-01-29T03:44:34.388Z,0.30
2023-01-29T03:46:29.755Z,0.28
2023-01-29T03:48:08.001Z,0.31
2023-01-29T03:49:48.824Z,0.25
2023-01-29T03:51:32.793Z,0.24
2023-01-29T03:53:07.730Z,0.18
2023-01-29T03:54:44.214Z,0.17
2023-01-29T03:56:28.329Z,0.17
2023-01-29T03:58:04.982Z,0.20
2023-01-29T03:59:43.459Z,0.16
2023-01-29T04:01:40.663Z,0.16
2023-01-29T04:03:12.786Z,0.18
2023-01-29T04:04:47.254Z,0.17
2023-01-29T04:06:22.134Z,0.13
2023-01-29T04:08:11.081Z,0.13
2023-01-29T04:10:15.842Z,0.12
2023-01-29T04:11:50.411Z,0.12
2023-01-29T04:13:24.178Z,0.14
2023-01-29T04:14:57.535Z,0.11
2023-01-29T04:16:33.911Z,0.07
2023-01-29T04:18:21.447Z,0.05
2023-01-29T04:20:11.386Z,0.05
2023-01-29T04:21:47.262Z,0.05
2023-01-29T04:23:26.465Z,0.02
2023-01-29T04:25:02.576Z,0.01
2023-01-29T04:26:44.178Z,0.01
2023-01-29T04:28:19.337Z,-0.01
2023-01-29T04:30:09.884Z,-0.01
2023-01-29T04:31:51.997Z,-0.01
2023-01-29T04:33:38.281Z,-0.02
2023-01-29T04:35:29.167Z,-0.03
2023-01-29T04:37:02.671Z,-0.03
2023-01-29T04:38:53.166Z,-0.07
2023-01-29T04:40:44.242Z,-0.10
2023-01-29T04:42:22.693Z,-0.10
2023-01-29T04:44:06.085Z,-0.14
2023-01-29T04:45:53.391Z,-0.15
2023-01-29T04:47:33.305Z,-0.14
2023-01-29T04:49:13.223Z,-0.16
2023-01-29T04:50:49.639Z,-0.19
2023-01-29T04:52:21.620Z,-0.20
2023-01-29T04:53:59.957Z,-0.16
2023-01-29T04:55:45.336Z,-0.17
2023-01-29T04:57:25.518Z,-0.20
2023-01-29T04:58:59.902Z,-0.24
2023-01-29T05:00:33.823Z,-0.26
2023-01-29T05:02:07.233Z,-0.21
2023-01-29T05:03:41.191Z,-0.23
2023-01-29T05:05:14.732Z,-0.25
2023-01-29T05:06:48.377Z,-0.27
2023-01-29T05:08:21.617Z,-0.30
2023-01-29T05:09:53.636Z,-0.33
2023-01-29T05:11:26.083Z,-0.30
2023-01-29T05:13:02.273Z,-0.32
2023-01-29T05:14:34.756Z,-0.32
2023-01-29T05:16:10.035Z,-0.33
2023-01-29T05:17:42.636Z,-0.32
2023-01-29T05:19:16.061Z,-0.31
2023-01-29T05:20:48.589Z,-0.28
2023-01-29T05:22:22.869Z,-0.30
2023-01-29T05:24:08.496Z,-0.30
2023-01-29T05:25:40.445Z,-0.34
2023-01-29T05:27:37.194Z,-0.38
2023-01-29T05:29:09.329Z,-0.30
2023-01-29T05:30:41.434Z,-0.31
2023-01-29T05:32:14.001Z,-0.30
2023-01-29T05:33:45.936Z,-0.35
2023-01-29T05:35:17.896Z,-0.36
2023-01-29T05:36:50.120Z,-0.32
2023-01-29T05:38:22.610Z,-0.35
2023-01-29T05:39:54.610Z,-0.35
2023-01-29T05:41:26.499Z,-0.36
2023-01-29T05:42:58.509Z,-0.38
2023-01-29T05:44:30.553Z,-0.38
2023-01-29T05:46:02.545Z,-0.38
2023-01-29T05:47:34.534Z,-0.38
2023-01-29T05:49:06.612Z,-0.41
2023-01-29T05:50:38.550Z,-0.44
2023-01-29T05:52:10.581Z,-0.46
2023-01-29T05:53:42.479Z,-0.46
2023-01-29T05:55:14.539Z,-0.40
2023-01-29T05:56:46.460Z,-0.42
2023-01-29T05:58:19.851Z,-0.47
2023-01-29T05:59:51.763Z,-0.45
2023-01-29T06:01:24.651Z,-0.48
2023-01-29T06:02:56.828Z,-0.53
2023-01-29T06:04:28.872Z,-0.55
2023-01-29T06:06:01.716Z,-0.52
2023-01-29T06:07:33.794Z,-0.54
2023-01-29T06:09:05.720Z,-0.59
2023-01-29T06:10:37.832Z,-0.61
2023-01-29T06:12:09.782Z,-0.61
2023-01-29T06:13:41.766Z,-0.61
2023-01-29T06:15:15.566Z,-0.60
2023-01-29T06:16:47.594Z,-0.61
2023-01-29T06:18:19.561Z,-0.65
2023-01-29T06:19:51.564Z,-0.68
2023-01-29T06:21:23.512Z,-0.75
2023-01-29T06:22:55.501Z,-0.77
2023-01-29T06:24:27.485Z,-0.79
2023-01-29T06:26:00.999Z,-0.85
2023-01-29T06:27:32.968Z,-0.91
2023-01-29T06:29:04.987Z,-0.94
2023-01-29T06:30:36.966Z,-1.02
2023-01-29T06:32:09.039Z,-1.07
2023-01-29T06:33:41.042Z,-1.11
2023-01-29T06:35:13.175Z,-1.16
2023-01-29T06:36:45.091Z,-1.20
2023-01-29T06:38:17.061Z,-1.26
2023-01-29T06:39:48.955Z,-1.32
2023-01-29T06:41:25.324Z,-1.37
2023-01-29T06:42:57.383Z,-1.44
2023-01-29T06:44:29.537Z,-1.46
2023-01-29T06:46:01.588Z,-1.53
2023-01-29T06:47:33.583Z,-1.53
2023-01-29T06:49:05.550Z,-1.58
2023-01-29T06:50:37.605Z,-1.62
2023-01-29T06:52:09.687Z,-1.60
2023-01-29T06:53:43.372Z,-1.63
2023-01-29T06:55:16.776Z,-1.66
2023-01-29T06:56:48.726Z,-1.69
2023-01-29T06:58:21.029Z,-1.71
2023-01-29T06:59:52.957Z,-1.72
2023-01-29T07:01:35.787Z,-1.71
2023-01-29T07:03:09.530Z,-1.63
2023-01-29T07:04:42.814Z,-1.54
2023-01-29T07:06:14.811Z,-1.52
2023-01-29T07:07:46.754Z,-1.47
2023-01-29T07:09:18.861Z,-1.43
2023-01-29T07:10:50.867Z,-1.38
2023-01-29T07:12:22.816Z,-1.35
2023-01-29T07:13:54.752Z,-1.31
2023-01-29T07:15:27.506Z,-1.27
2023-01-29T07:16:59.420Z,-1.21
2023-01-29T07:18:31.628Z,-1.21
2023-01-29T07:20:03.682Z,-1.17
2023-01-29T07:21:35.685Z,-1.09
2023-01-29T07:23:08.985Z,-1.05
2023-01-29T07:24:40.963Z,-1.02
2023-01-29T07:26:12.910Z,-1.01
2023-01-29T07:27:44.958Z,-0.96
2023-01-29T07:29:16.916Z,-0.95
2023-01-29T07:30:48.943Z,-0.97
2023-01-29T07:32:20.971Z,-0.86
2023-01-29T07:33:53.124Z,-0.77
2023-01-29T07:35:25.065Z,-0.71
2023-01-29T07:36:57.182Z,-0.72
2023-01-29T07:38:29.187Z,-0.63
2023-01-29T07:40:01.225Z,-0.59
2023-01-29T07:41:33.293Z,-0.48
2023-01-29T07:43:06.482Z,-0.41
2023-01-29T07:44:39.049Z,-0.35
2023-01-29T07:46:11.556Z,-0.21
2023-01-29T07:47:43.567Z,-0.09
2023-01-29T07:49:15.882Z,0.00
2023-01-29T07:50:54.384Z,0.11
2023-01-29T07:52:26.378Z,0.20
2023-01-29T07:53:58.347Z,0.27
2023-01-29T07:55:30.635Z,0.34
2023-01-29T07:57:02.563Z,0.39
2023-01-29T07:58:36.692Z,0.43
2023-01-29T08:00:09.217Z,0.43
2023-01-29T08:01:44.269Z,0.41
2023-01-29T08:03:17.549Z,0.39
2023-01-29T08:04:49.679Z,0.32
2023-01-29T08:06:21.825Z,0.30
2023-01-29T08:08:06.216Z,0.28
2023-01-29T08:09:39.121Z,0.24
2023-01-29T08:11:11.076Z,0.22
2023-01-29T08:12:43.138Z,0.18
2023-01-29T08:14:15.302Z,0.08
2023-01-29T08:15:47.459Z,-0.05
2023-01-29T08:17:19.524Z,-0.08
2023-01-29T08:18:51.558Z,-0.24
2023-01-29T08:20:23.679Z,-0.41
2023-01-29T08:21:55.782Z,-0.53
2023-01-29T08:23:27.855Z,-0.68
2023-01-29T08:25:20.767Z,-0.79
2023-01-29T08:26:51.843Z,-0.93
2023-01-29T08:28:23.887Z,-1.02
2023-01-29T08:29:55.910Z,-1.02
2023-01-29T08:31:27.996Z,-1.08
2023-01-29T08:33:00.198Z,-1.17
2023-01-29T08:34:32.132Z,-1.23
2023-01-29T08:36:04.288Z,-1.26
2023-01-29T08:37:36.231Z,-1.30
2023-01-29T08:39:08.333Z,-1.31
2023-01-29T08:40:40.326Z,-1.36
2023-01-29T08:42:12.353Z,-1.41
2023-01-29T08:43:44.348Z,-1.38
2023-01-29T08:45:16.785Z,-1.27
2023-01-29T08:46:48.695Z,-1.21
2023-01-29T08:48:20.718Z,-1.29
2023-01-29T08:49:52.844Z,-1.29
2023-01-29T08:51:25.355Z,-1.17
2023-01-29T08:52:58.721Z,-1.20
2023-01-29T08:54:30.732Z,-1.21
2023-01-29T08:56:02.821Z,-1.21
2023-01-29T08:57:34.780Z,-1.17
2023-01-29T08:59:06.742Z,-1.11
2023-01-29T09:00:39.030Z,-1.07
2023-01-29T09:02:11.297Z,-1.07
2023-01-29T09:03:44.625Z,-1.10
2023-01-29T09:05:16.793Z,-1.13
2023-01-29T09:06:49.052Z,-1.08
2023-01-29T09:08:20.979Z,-1.11
2023-01-29T09:09:52.920Z,-1.11
2023-01-29T09:11:24.897Z,-1.09
2023-01-29T09:12:57.034Z,-1.10
2023-01-29T09:14:29.063Z,-1.06
2023-01-29T09:16:02.033Z,-0.96
2023-01-29T09:17:34.080Z,-0.92
2023-01-29T09:19:06.071Z,-1.02
2023-01-29T09:20:38.402Z,-1.00
2023-01-29T09:22:11.906Z,-0.94
2023-01-29T09:23:43.991Z,-0.94
2023-01-29T09:25:16.323Z,-0.95
2023-01-29T09:26:48.452Z,-0.97
2023-01-29T09:28:20.610Z,-0.97
2023-01-29T09:29:52.576Z,-0.90
2023-01-29T09:31:24.698Z,-0.88
2023-01-29T09:32:56.849Z,-0.82
2023-01-29T09:34:28.896Z,-0.80
2023-01-29T09:36:02.785Z,-0.80
2023-01-29T09:37:34.892Z,-0.70
2023-01-29T09:39:06.842Z,-0.68
2023-01-29T09:40:41.737Z,-0.77
2023-01-29T09:42:16.795Z,-0.78
2023-01-29T09:43:53.389Z,-0.70
2023-01-29T09:45:26.751Z,-0.78
2023-01-29T09:47:00.519Z,-0.80
2023-01-29T09:48:34.405Z,-0.78
2023-01-29T09:50:08.146Z,-0.80
2023-01-29T09:51:51.430Z,-0.75
2023-01-29T09:53:27.821Z,-0.70
2023-01-29T09:55:02.806Z,-0.65
2023-01-29T09:56:35.292Z,-0.56
2023-01-29T09:58:21.164Z,-0.42
2023-01-29T09:59:53.225Z,-0.40
2023-01-29T10:01:25.231Z,-0.43
2023-01-29T10:03:03.474Z,-0.37
2023-01-29T10:04:35.505Z,-0.37
2023-01-29T10:06:10.606Z,-0.32
2023-01-29T10:07:42.555Z,-0.34
2023-01-29T10:09:14.576Z,-0.32
2023-01-29T10:10:50.695Z,-0.32
2023-01-29T10:12:31.497Z,-0.34
2023-01-29T10:14:16.621Z,-0.27
2023-01-29T10:16:08.875Z,-0.33
2023-01-29T10:17:43.822Z,-0.34
2023-01-29T10:19:15.854Z,-0.35
2023-01-29T10:21:01.461Z,-0.29
2023-01-29T10:22:33.467Z,-0.37
2023-01-29T10:24:24.119Z,-0.28
2023-01-29T10:25:56.024Z,-0.31
2023-01-29T10:27:35.212Z,-0.31
2023-01-29T10:29:07.994Z,-0.34
2023-01-29T10:30:41.393Z,-0.34
2023-01-29T10:32:21.081Z,-0.30
2023-01-29T10:34:02.777Z,-0.31
2023-01-29T10:35:41.454Z,-0.31
2023-01-29T10:37:16.490Z,-0.28
2023-01-29T10:38:51.530Z,-0.24
2023-01-29T10:40:23.479Z,-0.17
2023-01-29T10:41:55.665Z,-0.08
2023-01-29T10:43:27.583Z,-0.14
2023-01-29T10:45:07.603Z,-0.16
2023-01-29T10:46:45.834Z,-0.15
2023-01-29T10:48:17.858Z,-0.17
2023-01-29T10:49:52.738Z,-0.16
2023-01-29T10:51:30.558Z,-0.10
2023-01-29T10:53:17.949Z,-0.11
2023-01-29T10:54:58.777Z,-0.10
2023-01-29T10:56:33.571Z,-0.16
2023-01-29T10:58:21.087Z,-0.06
2023-01-29T10:59:53.003Z,-0.05
2023-01-29T11:01:26.828Z,-0.04
2023-01-29T11:03:12.517Z,0.02
2023-01-29T11:04:50.115Z,0.13
2023-01-29T11:06:24.363Z,0.17
2023-01-29T11:08:05.771Z,0.20
2023-01-29T11:09:42.535Z,0.27
2023-01-29T11:11:15.727Z,0.36
2023-01-29T11:12:48.004Z,0.49
2023-01-29T11:14:25.196Z,0.49
2023-01-29T11:15:57.223Z,0.54
2023-01-29T11:17:29.255Z,0.61
2023-01-29T11:19:01.681Z,0.53
2023-01-29T11:20:33.952Z,0.54
2023-01-29T11:22:12.127Z,0.53
2023-01-29T11:23:44.235Z,0.59
2023-01-29T11:25:17.721Z,0.66
2023-01-29T11:26:50.528Z,0.71
2023-01-29T11:28:40.735Z,0.69
2023-01-29T11:30:31.917Z,0.64
2023-01-29T11:32:05.610Z,0.52
2023-01-29T11:33:37.936Z,0.44
2023-01-29T11:35:12.588Z,0.29
2023-01-29T11:36:45.088Z,0.25
2023-01-29T11:38:17.007Z,0.31
2023-01-29T11:39:50.545Z,0.33
2023-01-29T11:41:25.409Z,0.29
2023-01-29T11:43:11.394Z,0.42
2023-01-29T11:44:43.549Z,0.43
2023-01-29T11:46:16.098Z,0.41
2023-01-29T11:47:52.860Z,0.43
2023-01-29T11:49:34.915Z,0.52
2023-01-29T11:51:08.073Z,0.63
2023-01-29T11:52:42.174Z,0.68
2023-01-29T11:54:17.151Z,0.71
2023-01-29T11:55:51.030Z,0.77
2023-01-29T11:57:43.438Z,0.82
2023-01-29T11:59:37.211Z,0.83
2023-01-29T12:01:09.914Z,0.74
2023-01-29T12:02:46.105Z,0.64
2023-01-29T12:04:23.393Z,0.53
2023-01-29T12:06:00.421Z,0.45
2023-01-29T12:07:32.858Z,0.37
2023-01-29T12:09:10.269Z,0.35
2023-01-29T12:10:42.933Z,0.33
2023-01-29T12:12:26.613Z,0.32
2023-01-29T12:14:03.282Z,0.27
2023-01-29T12:15:35.903Z,0.26
2023-01-29T12:17:13.985Z,0.19
2023-01-29T12:18:52.236Z,0.16
2023-01-29T12:20:28.195Z,0.13
2023-01-29T12:22:21.256Z,0.09
2023-01-29T12:24:04.282Z,0.13
2023-01-29T12:25:40.475Z,0.08
2023-01-29T12:27:16.198Z,0.01
2023-01-29T12:28:50.933Z,0.07
2023-01-29T12:30:27.580Z,-0.07
2023-01-29T12:32:08.497Z,-0.09
2023-01-29T12:33:43.238Z,-0.11
2023-01-29T12:35:18.459Z,-0.11
2023-01-29T12:36:54.541Z,-0.11
2023-01-29T12:38:26.985Z,-0.11
2023-01-29T12:39:58.938Z,-0.15
2023-01-29T12:41:41.174Z,-0.11
2023-01-29T12:43:22.585Z,-0.15
2023-01-29T12:44:57.511Z,-0.15
2023-01-29T12:46:31.869Z,-0.12
2023-01-29T12:48:08.764Z,-0.13
2023-01-29T12:49:41.134Z,-0.18
2023-01-29T12:51:19.107Z,-0.22
2023-01-29T12:52:54.084Z,-0.17
2023-01-29T12:54:30.951Z,-0.16
2023-01-29T12:56:05.755Z,-0.15
2023-01-29T12:57:44.734Z,-0.10
2023-01-29T12:59:19.736Z,-0.13
2023-01-29T13:00:53.507Z,-0.14
2023-01-29T13:02:31.478Z,-0.11
2023-01-29T13:04:16.675Z,-0.16
2023-01-29T13:05:51.342Z,-0.20
2023-01-29T13:07:28.062Z,-0.21
2023-01-29T13:09:04.745Z,-0.19
2023-01-29T13:10:38.512Z,-0.13
2023-01-29T13:12:28.722Z,-0.18
2023-01-29T13:14:03.655Z,-0.22
2023-01-29T13:15:38.372Z,-0.21
2023-01-29T13:17:14.244Z,-0.17
2023-01-29T13:18:47.953Z,-0.12
2023-01-29T13:20:25.015Z,-0.13
2023-01-29T13:21:59.592Z,-0.04
2023-01-29T13:23:36.925Z,-0.08
2023-01-29T13:25:12.819Z,-0.10
2023-01-29T13:26:45.643Z,-0.15
2023-01-29T13:28:19.144Z,-0.17
2023-01-29T13:29:51.449Z,-0.11
2023-01-29T13:31:23.403Z,-0.15
2023-01-29T13:33:09.147Z,-0.17
2023-01-29T13:34:46.410Z,-0.17
2023-01-29T13:36:20.890Z,-0.16
2023-01-29T13:37:54.046Z,-0.07
2023-01-29T13:39:26.139Z,-0.06
2023-01-29T13:41:00.876Z,-0.07
2023-01-29T13:42:33.191Z,-0.16
2023-01-29T13:44:05.984Z,-0.13
2023-01-29T13:45:45.658Z,-0.15
2023-01-29T13:47:31.295Z,-0.09
2023-01-29T13:49:05.128Z,-0.12
2023-01-29T13:50:41.760Z,-0.12
2023-01-29T13:52:16.577Z,-0.09
2023-01-29T13:54:00.566Z,-0.11
2023-01-29T13:55:33.609Z,-0.11
2023-01-29T13:57:05.643Z,-0.07
2023-01-29T13:58:43.435Z,0.01
2023-01-29T14:00:21.462Z,-0.02
2023-01-29T14:01:53.496Z,-0.05
2023-01-29T14:03:25.408Z,-0.07
2023-01-29T14:05:16.205Z,-0.09
2023-01-29T14:06:49.875Z,-0.15
2023-01-29T14:08:43.388Z,-0.19
2023-01-29T14:10:20.158Z,-0.21
2023-01-29T14:11:52.622Z,-0.28
2023-01-29T14:13:34.282Z,-0.29
2023-01-29T14:15:19.025Z,-0.34
2023-01-29T14:17:01.035Z,-0.38
2023-01-29T14:18:34.502Z,-0.38
2023-01-29T14:20:18.481Z,-0.43
2023-01-29T14:21:51.036Z,-0.52
2023-01-29T14:23:29.035Z,-0.54
2023-01-29T14:25:03.282Z,-0.60
2023-01-29T14:26:38.357Z,-0.57
2023-01-29T14:28:30.643Z,-0.55
2023-01-29T14:30:06.277Z,-0.59
2023-01-29T14:31:44.244Z,-0.71
2023-01-29T14:33:31.375Z,-0.79
2023-01-29T14:35:05.137Z,-0.85
2023-01-29T14:36:44.292Z,-0.92
2023-01-29T14:38:16.484Z,-0.97
2023-01-29T14:39:52.881Z,-0.97
2023-01-29T14:41:32.666Z,-1.03
2023-01-29T14:43:09.032Z,-1.02
2023-01-29T14:44:56.520Z,-1.00
2023-01-29T14:46:34.402Z,-1.04
2023-01-29T14:48:09.299Z,-1.10
2023-01-29T14:50:07.617Z,-1.18
2023-01-29T14:51:41.933Z,-1.21
2023-01-29T14:53:40.304Z,-1.22
2023-01-29T14:55:35.532Z,-1.34
2023-01-29T14:57:11.138Z,-1.34
2023-01-29T14:58:52.025Z,-1.35
2023-01-29T15:00:27.474Z,-1.37
2023-01-29T15:02:02.516Z,-1.43
2023-01-29T15:03:55.329Z,-1.43
2023-01-29T15:05:32.615Z,-1.51
2023-01-29T15:07:04.857Z,-1.55
2023-01-29T15:08:41.657Z,-1.50
2023-01-29T15:10:27.256Z,-1.56
2023-01-29T15:12:18.690Z,-1.60
2023-01-29T15:13:53.793Z,-1.63
2023-01-29T15:15:42.486Z,-1.67
2023-01-29T15:17:22.108Z,-1.69
2023-01-29T15:18:56.567Z,-1.75
2023-01-29T15:20:30.253Z,-1.79
2023-01-29T15:22:10.880Z,-1.76
2023-01-29T15:23:44.329Z,-1.82
2023-01-29T15:25:19.368Z,-1.82
2023-01-29T15:26:51.527Z,-1.84
2023-01-29T15:28:23.701Z,-1.86
2023-01-29T15:30:00.317Z,-1.90
2023-01-29T15:31:32.772Z,-1.94
2023-01-29T15:33:07.938Z,-1.90
2023-01-29T15:34:42.457Z,-1.83
2023-01-29T15:36:22.537Z,-1.81
2023-01-29T15:38:01.407Z,-1.82
2023-01-29T15:39:42.267Z,-1.87
2023-01-29T15:41:21.663Z,-1.92
2023-01-29T15:42:53.662Z,-1.98
2023-01-29T15:44:25.578Z,-2.03
2023-01-29T15:46:02.817Z,-2.02
2023-01-29T15:47:35.515Z,-2.03
2023-01-29T15:49:08.768Z,-2.08
2023-01-29T15:50:42.435Z,-2.09
2023-01-29T15:52:19.521Z,-1.98
2023-01-29T15:54:11.225Z,-2.05
2023-01-29T15:55:43.582Z,-2.10
2023-01-29T15:57:23.746Z,-2.16
2023-01-29T15:58:57.529Z,-2.22
2023-01-29T16:00:30.234Z,-2.29
2023-01-29T16:02:21.060Z,-2.30
2023-01-29T16:03:53.456Z,-2.33
2023-01-29T16:05:27.313Z,-2.33
2023-01-29T16:07:00.618Z,-2.34
2023-01-29T16:08:33.559Z,-2.34
2023-01-29T16:10:06.660Z,-2.35
2023-01-29T16:11:39.826Z,-2.37
2023-01-29T16:13:22.710Z,-2.36
2023-01-29T16:14:55.469Z,-2.39
2023-01-29T16:16:28.050Z,-2.42
2023-01-29T16:18:00.697Z,-2.42
2023-01-29T16:19:32.748Z,-2.44
2023-01-29T16:21:24.426Z,-2.43
2023-01-29T16:22:56.433Z,-2.42
2023-01-29T16:24:29.394Z,-2.42
2023-01-29T16:26:02.933Z,-2.42
2023-01-29T16:27:35.028Z,-2.44
2023-01-29T16:29:09.386Z,-2.46
2023-01-29T16:30:41.531Z,-2.47
2023-01-29T16:32:14.088Z,-2.47
2023-01-29T16:33:46.298Z,-2.45
2023-01-29T16:35:18.695Z,-2.45
2023-01-29T16:36:53.424Z,-2.46
2023-01-29T16:38:30.197Z,-2.46
2023-01-29T16:40:12.631Z,-2.47
2023-01-29T16:41:45.021Z,-2.47
2023-01-29T16:43:16.942Z,-2.49
2023-01-29T16:44:56.870Z,-2.50
2023-01-29T16:46:38.636Z,-2.52
2023-01-29T16:48:26.241Z,-2.54
2023-01-29T16:50:16.950Z,-2.51
2023-01-29T16:51:49.073Z,-2.50
2023-01-29T16:53:23.231Z,-2.46
2023-01-29T16:54:59.462Z,-2.45
2023-01-29T16:56:32.710Z,-2.44
2023-01-29T16:58:10.856Z,-2.46
2023-01-29T16:59:43.241Z,-2.51
2023-01-29T17:01:15.279Z,-2.51
2023-01-29T17:02:47.378Z,-2.53
2023-01-29T17:04:19.686Z,-2.55
2023-01-29T17:05:52.589Z,-2.55
2023-01-29T17:07:25.061Z,-2.58
2023-01-29T17:08:57.177Z,-2.61
2023-01-29T17:10:29.771Z,-2.61
2023-01-29T17:12:03.503Z,-2.63
2023-01-29T17:13:40.139Z,-2.67
2023-01-29T17:15:27.566Z,-2.70
2023-01-29T17:17:03.683Z,-2.74
2023-01-29T17:18:35.671Z,-2.79
2023-01-29T17:20:15.637Z,-2.83
2023-01-29T17:21:47.743Z,-2.87
2023-01-29T17:23:19.878Z,-2.88
2023-01-29T17:24:52.349Z,-2.89
2023-01-29T17:26:24.955Z,-2.94
2023-01-29T17:27:59.952Z,-2.98
2023-01-29T17:29:32.135Z,-3.05
2023-01-29T17:31:07.005Z,-3.08
2023-01-29T17:32:44.829Z,-3.13
2023-01-29T17:34:17.942Z,-3.20
2023-01-29T17:35:50.276Z,-3.22
2023-01-29T17:37:22.258Z,-3.24
2023-01-29T17:38:54.285Z,-3.26
2023-01-29T17:40:39.073Z,-3.28
2023-01-29T17:42:13.023Z,-3.30
2023-01-29T17:43:44.995Z,-3.34
2023-01-29T17:45:17.397Z,-3.37
2023-01-29T17:46:49.629Z,-3.38
2023-01-29T17:48:26.067Z,-3.38
2023-01-29T17:49:58.584Z,-3.40
2023-01-29T17:51:30.585Z,-3.39
2023-01-29T17:53:02.793Z,-3.42
2023-01-29T17:54:34.834Z,-3.41
2023-01-29T17:56:07.100Z,-3.41
2023-01-29T17:57:39.131Z,-3.40
2023-01-29T17:59:25.387Z,-3.38
2023-01-29T18:00:57.383Z,-3.32
2023-01-29T18:02:30.027Z,-3.26
2023-01-29T18:04:02.232Z,-3.22
2023-01-29T18:05:34.190Z,-3.15
2023-01-29T18:07:06.228Z,-3.11
2023-01-29T18:08:38.834Z,-3.05
2023-01-29T18:10:16.719Z,-3.02
2023-01-29T18:11:49.502Z,-2.98
2023-01-29T18:13:21.635Z,-2.96
2023-01-29T18:14:53.720Z,-2.94
2023-01-29T18:16:26.135Z,-2.93
2023-01-29T18:17:58.242Z,-2.93
2023-01-29T18:19:32.171Z,-2.93
2023-01-29T18:21:04.204Z,-2.94
2023-01-29T18:22:36.294Z,-2.97
2023-01-29T18:24:08.396Z,-3.00
2023-01-29T18:25:40.639Z,-3.05
2023-01-29T18:27:12.640Z,-3.07
2023-01-29T18:28:45.210Z,-3.13
2023-01-29T18:30:17.399Z,-3.18
2023-01-29T18:31:49.647Z,-3.22
2023-01-29T18:33:24.171Z,-3.27
2023-01-29T18:34:56.741Z,-3.28
2023-01-29T18:36:28.881Z,-3.30
2023-01-29T18:38:01.041Z,-3.30
2023-01-29T18:39:33.025Z,-3.30
2023-01-29T18:41:11.993Z,-3.33
2023-01-29T18:42:44.799Z,-3.36
2023-01-29T18:44:17.105Z,-3.39
2023-01-29T18:45:49.521Z,-3.41
2023-01-29T18:47:21.616Z,-3.41
2023-01-29T18:48:53.675Z,-3.41
2023-01-29T18:50:26.501Z,-3.40
2023-01-29T18:51:58.501Z,-3.39
2023-01-29T18:53:30.545Z,-3.40
2023-01-29T18:55:02.471Z,-3.42
2023-01-29T18:56:35.264Z,-3.44
2023-01-29T18:58:26.639Z,-3.47
2023-01-29T18:59:59.324Z,-3.50
2023-01-29T19:01:32.519Z,-3.51
2023-01-29T19:03:04.528Z,-3.55
2023-01-29T19:04:36.490Z,-3.57
2023-01-29T19:06:09.514Z,-3.59
2023-01-29T19:07:41.551Z,-3.64
2023-01-29T19:09:13.604Z,-3.70
2023-01-29T19:10:45.724Z,-3.74
2023-01-29T19:12:17.700Z,-3.79
2023-01-29T19:13:49.951Z,-3.83
2023-01-29T19:15:22.927Z,-3.89
2023-01-29T19:16:55.746Z,-3.94
2023-01-29T19:18:28.501Z,-3.99
2023-01-29T19:20:04.801Z,-4.05
2023-01-29T19:21:37.191Z,-4.09
2023-01-29T19:23:09.603Z,-4.10
2023-01-29T19:24:41.955Z,-4.11
2023-01-29T19:26:14.793Z,-4.13
2023-01-29T19:27:46.927Z,-4.16
2023-01-29T19:29:20.166Z,-4.19
2023-01-29T19:30:52.316Z,-4.20
2023-01-29T19:32:24.332Z,-4.23
2023-01-29T19:33:56.348Z,-4.26
2023-01-29T19:35:28.562Z,-4.31
2023-01-29T19:37:00.890Z,-4.34
2023-01-29T19:38:33.720Z,-4.35
2023-01-29T19:40:06.086Z,-4.38
2023-01-29T19:41:38.182Z,-4.40
2023-01-29T19:43:10.249Z,-4.43
2023-01-29T19:44:42.292Z,-4.44
2023-01-29T19:46:14.731Z,-4.42
2023-01-29T19:47:47.263Z,-4.42
2023-01-29T19:49:19.305Z,-4.41
2023-01-29T19:50:52.516Z,-4.42
2023-01-29T19:52:50.168Z,-4.46
2023-01-29T19:54:22.951Z,-4.49
2023-01-29T19:56:02.645Z,-4.51
2023-01-29T19:57:34.734Z,-4.54
2023-01-29T19:59:07.445Z,-4.55
2023-01-29T20:00:39.522Z,-4.57
2023-01-29T20:02:11.650Z,-4.58
2023-01-29T20:03:46.648Z,-4.60
2023-01-29T20:05:20.374Z,-4.60
2023-01-29T20:06:52.548Z,-4.60
2023-01-29T20:08:24.627Z,-4.61
2023-01-29T20:09:56.621Z,-4.62
2023-01-29T20:11:29.061Z,-4.63
2023-01-29T20:13:01.149Z,-4.63
2023-01-29T20:14:33.185Z,-4.62
2023-01-29T20:16:05.546Z,-4.60
2023-01-29T20:17:37.708Z,-4.59
2023-01-29T20:19:14.544Z,-4.57
2023-01-29T20:20:48.580Z,-4.53
2023-01-29T20:22:20.850Z,-4.54
2023-01-29T20:23:53.004Z,-4.52
2023-01-29T20:25:24.985Z,-4.52
2023-01-29T20:26:57.176Z,-4.50
2023-01-29T20:28:29.317Z,-4.47
2023-01-29T20:30:01.416Z,-4.46
2023-01-29T20:31:34.807Z,-4.45
2023-01-29T20:33:06.988Z,-4.46
2023-01-29T20:34:38.982Z,-4.48
2023-01-29T20:36:12.246Z,-4.50
2023-01-29T20:37:44.262Z,-4.48
2023-01-29T20:39:16.376Z,-4.47
2023-01-29T20:40:48.407Z,-4.49
2023-01-29T20:42:20.462Z,-4.51
2023-01-29T20:43:52.449Z,-4.52
2023-01-29T20:45:24.543Z,-4.51
2023-01-29T20:47:01.889Z,-4.52